Time;durP1;ratioP1;P1;durP2;ratioP2;P2;SDS_P1;SDS_P2;PMS_P1;PMS_P2;Temp;Humidity;BMP_temperature;BMP_pressure;BME280_temperature;BME280_humidity;BME280_pressure;Samples;Min_cycle;Max_cycle;Signal;HPM_P1;HPM_P2
2021/11/05 00:01:47;;;;;;;107.80;33.67;;;;;;;12.77;92.48;100528.50;5069314;28;20404;-20
2021/11/05 00:04:13;;;;;;;98.63;32.42;;;;;;;12.72;93.24;100526.50;5069430;28;20105;-20
2021/11/05 00:06:38;;;;;;;92.38;31.15;;;;;;;12.99;91.77;100515.50;5069153;28;20024;-20
2021/11/05 00:09:04;;;;;;;74.80;26.83;;;;;;;12.96;90.52;100522.13;5069122;28;20039;-20
2021/11/05 00:11:29;;;;;;;76.07;29.15;;;;;;;13.12;90.50;100514.53;5069247;28;20063;-20
2021/11/05 00:13:55;;;;;;;75.65;27.60;;;;;;;13.18;90.04;100514.47;5069191;28;20432;-20
2021/11/05 00:16:20;;;;;;;120.85;32.80;;;;;;;13.16;90.25;100516.56;5069021;28;20071;-20
2021/11/05 00:18:46;;;;;;;98.88;33.80;;;;;;;13.14;89.66;100497.22;5068833;28;20417;-21
2021/11/05 00:21:11;;;;;;;105.90;33.28;;;;;;;13.23;89.17;100516.47;5068987;28;20032;-22
2021/11/05 00:23:37;;;;;;;98.75;31.77;;;;;;;13.19;89.58;100516.09;5068975;28;20043;-21
2021/11/05 00:26:02;;;;;;;88.40;28.67;;;;;;;12.85;90.76;100510.31;5050941;28;20054;-21
2021/11/05 00:28:28;;;;;;;101.88;32.05;;;;;;;12.82;91.28;100515.28;5051066;28;20032;-20
2021/11/05 00:30:54;;;;;;;103.05;29.98;;;;;;;12.73;91.47;100493.38;5068884;28;20055;-21
2021/11/05 00:33:19;;;;;;;118.57;34.40;;;;;;;12.98;90.91;100503.19;5068678;28;20089;-20
2021/11/05 00:35:45;;;;;;;142.43;42.85;;;;;;;13.06;90.20;100490.28;5068732;28;20021;-20
2021/11/05 00:38:10;;;;;;;107.28;32.78;;;;;;;12.89;91.24;100494.59;5068296;28;20401;-20
2021/11/05 00:40:36;;;;;;;100.10;33.33;;;;;;;13.14;90.25;100504.44;5050853;28;20105;-22
2021/11/05 00:43:01;;;;;;;107.45;30.77;;;;;;;12.69;91.30;100500.19;5051006;28;20094;-20
2021/11/05 00:45:28;;;;;;;98.05;31.60;;;;;;;13.00;90.44;100490.38;5050714;28;20548;-20
2021/11/05 00:47:54;;;;;;;97.78;29.95;;;;;;;12.97;90.48;100496.16;5068293;28;20025;-20
2021/11/05 00:50:19;;;;;;;89.63;28.50;;;;;;;13.09;89.22;100478.31;5050928;28;20124;-20
2021/11/05 00:52:44;;;;;;;107.88;30.33;;;;;;;12.99;89.89;100483.38;5068641;28;20531;-20
2021/11/05 00:55:10;;;;;;;145.07;27.52;;;;;;;13.00;89.63;100479.69;5050541;28;20047;-20
2021/11/05 00:57:36;;;;;;;148.50;31.70;;;;;;;13.01;90.03;100486.66;5068476;28;20114;-20
2021/11/05 01:00:13;;;;;;;139.05;31.17;;;;;;;13.26;89.17;100482.00;5068201;28;20047;-20
2021/11/05 01:02:39;;;;;;;101.20;27.80;;;;;;;13.46;87.78;100480.94;5068361;28;20024;-20
2021/11/05 01:05:05;;;;;;;116.57;28.60;;;;;;;13.25;87.76;100472.34;5033579;28;20040;-21
2021/11/05 01:07:30;;;;;;;126.70;28.83;;;;;;;12.94;89.91;100484.06;5068320;28;20055;-20
2021/11/05 01:09:56;;;;;;;96.93;30.55;;;;;;;12.82;90.95;100492.00;5068025;28;20036;-20
2021/11/05 01:12:21;;;;;;;115.03;29.17;;;;;;;12.74;91.82;100484.28;5050718;28;20082;-21
2021/11/05 01:14:47;;;;;;;97.40;29.65;;;;;;;13.01;90.40;100492.00;5068652;28;20119;-20
2021/11/05 01:17:12;;;;;;;112.07;30.65;;;;;;;12.96;89.45;100483.84;5050386;28;20024;-20
2021/11/05 01:19:38;;;;;;;120.55;29.25;;;;;;;12.84;89.96;100487.25;5068133;28;20078;-22
2021/11/05 01:22:04;;;;;;;102.95;27.58;;;;;;;13.02;89.21;100470.38;5068283;28;20029;-21
2021/11/05 01:24:29;;;;;;;92.00;28.02;;;;;;;12.87;89.55;100475.28;5068276;28;20024;-20
2021/11/05 01:26:55;;;;;;;119.32;25.67;;;;;;;12.79;90.80;100481.78;5068163;28;20421;-20
2021/11/05 01:29:20;;;;;;;82.20;25.83;;;;;;;12.70;90.87;100477.75;5050182;28;20036;-21
2021/11/05 01:31:46;;;;;;;80.43;24.30;;;;;;;12.80;90.79;100483.38;5068016;28;20024;-20
2021/11/05 01:34:11;;;;;;;76.15;25.85;;;;;;;12.73;90.46;100474.63;5067792;28;20036;-21
2021/11/05 01:36:37;;;;;;;79.32;24.27;;;;;;;12.58;91.66;100463.47;5068040;28;20028;-20
2021/11/05 01:39:03;;;;;;;71.63;24.25;;;;;;;12.61;91.52;100471.88;5067639;28;20581;-20
2021/11/05 01:41:28;;;;;;;65.03;22.88;;;;;;;12.88;90.15;100466.22;5067956;28;20046;-20
2021/11/05 01:43:54;;;;;;;69.43;24.13;;;;;;;12.74;91.37;100470.09;5067562;28;20033;-21
2021/11/05 01:46:20;;;;;;;64.88;22.92;;;;;;;12.88;89.93;100463.53;5067821;28;20074;-20
2021/11/05 01:48:45;;;;;;;77.50;23.58;;;;;;;12.74;91.05;100465.53;5050086;28;20028;-20
2021/11/05 01:51:11;;;;;;;88.50;25.02;;;;;;;12.98;89.96;100465.69;5067744;28;20025;-20
2021/11/05 01:53:36;;;;;;;125.60;28.50;;;;;;;12.94;89.00;100464.50;5050234;28;20394;-20
2021/11/05 01:56:02;;;;;;;108.97;29.27;;;;;;;12.52;91.65;100467.03;5071709;28;20071;-26
2021/11/05 01:58:28;;;;;;;154.70;28.75;;;;;;;13.01;89.21;100466.03;5071931;28;20093;-20
2021/11/05 02:00:53;;;;;;;107.63;28.45;;;;;;;13.09;88.69;100467.59;5037608;28;20462;-20
2021/11/05 02:03:19;;;;;;;103.07;26.10;;;;;;;12.44;91.55;100473.47;5053417;28;20035;-21
2021/11/05 02:05:45;;;;;;;96.82;28.70;;;;;;;12.22;93.05;100473.91;5053696;28;20040;-20
2021/11/05 02:08:10;;;;;;;108.05;30.17;;;;;;;12.09;93.95;100467.84;5071444;28;20064;-20
2021/11/05 02:10:36;;;;;;;125.68;30.17;;;;;;;12.07;93.77;100465.38;5037392;28;20093;-20
2021/11/05 02:13:01;;;;;;;103.35;26.90;;;;;;;12.20;93.60;100480.50;5053392;28;20108;-20
2021/11/05 02:15:27;;;;;;;109.07;28.38;;;;;;;12.03;94.08;100470.38;5071274;28;20507;-20
2021/11/05 02:17:53;;;;;;;91.72;29.10;;;;;;;12.17;93.92;100464.91;5071194;28;20150;-21
2021/11/05 02:20:24;;;;;;;110.18;27.60;;;;;;;12.46;92.40;100464.22;5071220;28;20047;-20
2021/11/05 02:22:49;;;;;;;113.28;28.05;;;;;;;12.45;91.89;100473.25;5071556;28;20039;-20
2021/11/05 02:25:15;;;;;;;98.50;27.02;;;;;;;12.49;91.93;100480.84;5053319;28;20028;-20
2021/11/05 02:27:41;;;;;;;99.95;26.83;;;;;;;12.60;91.46;100490.81;5071016;28;20028;-20
2021/11/05 02:30:07;;;;;;;83.18;26.80;;;;;;;12.58;91.63;100500.91;5071183;28;20044;-20
2021/11/05 02:32:37;;;;;;;90.95;25.45;;;;;;;12.42;91.13;100473.72;5071089;28;20048;-20
2021/11/05 02:35:06;;;;;;;91.40;25.52;;;;;;;12.82;90.18;100481.31;5071045;28;20040;-20
2021/11/05 02:37:31;;;;;;;90.78;24.75;;;;;;;12.83;90.11;100490.97;5071040;28;20093;-19
2021/11/05 02:39:57;;;;;;;77.35;27.02;;;;;;;12.55;91.34;100482.66;5070513;28;20057;-20
2021/11/05 02:42:23;;;;;;;75.35;23.88;;;;;;;12.56;91.12;100492.28;5070828;28;20112;-20
2021/11/05 02:44:48;;;;;;;74.32;23.35;;;;;;;12.85;89.63;100510.31;5053144;28;20108;-20
2021/11/05 02:47:24;;;;;;;85.30;24.27;;;;;;;12.65;90.41;100490.97;5070706;28;20029;-20
2021/11/05 02:49:50;;;;;;;93.30;24.40;;;;;;;12.55;90.49;100494.16;5070646;28;20044;-20
2021/11/05 02:52:15;;;;;;;76.95;24.20;;;;;;;12.85;89.78;100504.97;5070861;28;20024;-20
2021/11/05 02:54:41;;;;;;;73.57;24.67;;;;;;;12.88;89.40;100497.53;5070798;28;20044;-20
2021/11/05 02:57:07;;;;;;;75.63;25.25;;;;;;;12.72;90.81;100482.88;5070595;28;20029;-20
2021/11/05 02:59:33;;;;;;;76.40;24.45;;;;;;;13.16;89.21;100497.00;5070484;28;20063;-20
2021/11/05 03:01:58;;;;;;;73.43;23.67;;;;;;;13.24;88.46;100508.22;5052326;28;20503;-20
2021/11/05 03:04:24;;;;;;;70.30;22.88;;;;;;;13.26;88.00;100499.97;5070548;28;20028;-20
2021/11/05 03:06:49;;;;;;;61.05;22.70;;;;;;;13.07;89.01;100499.13;5069447;28;20056;-20
2021/11/05 03:09:16;;;;;;;66.90;22.33;;;;;;;13.07;89.43;100496.47;5070831;28;20033;-20
2021/11/05 03:11:42;;;;;;;60.40;23.63;;;;;;;13.21;87.99;100497.94;5052182;28;20110;-23
2021/11/05 03:14:08;;;;;;;54.45;21.30;;;;;;;13.17;87.95;100491.38;5052790;28;20037;-21
2021/11/05 03:16:33;;;;;;;59.88;21.63;;;;;;;13.24;87.29;100502.84;5070050;28;20464;-20
2021/11/05 03:18:59;;;;;;;67.35;21.02;;;;;;;13.24;87.35;100502.84;5052424;28;20785;-21
2021/11/05 03:21:25;;;;;;;62.78;21.88;;;;;;;12.90;88.82;100500.78;5070422;28;20852;-20
2021/11/05 03:23:50;;;;;;;61.20;21.50;;;;;;;12.84;88.68;100481.91;5069986;28;20806;-21
2021/11/05 03:26:16;;;;;;;74.80;22.52;;;;;;;13.01;87.91;100478.63;5069917;28;20020;-21
2021/11/05 03:28:41;;;;;;;73.85;24.10;;;;;;;13.11;87.63;100486.94;5052123;28;20506;-20
2021/11/05 03:31:07;;;;;;;93.05;28.17;;;;;;;13.04;87.30;100478.19;5069912;28;20028;-20
2021/11/05 03:33:32;;;;;;;70.35;21.15;;;;;;;12.95;87.97;100492.91;5035409;28;20036;-21
2021/11/05 03:35:57;;;;;;;64.40;20.95;;;;;;;12.89;88.84;100478.53;5069802;28;20837;-20
2021/11/05 03:38:23;;;;;;;68.30;20.40;;;;;;;12.91;88.64;100483.69;5069964;28;20059;-19
2021/11/05 03:40:49;;;;;;;42.83;17.77;;;;;;;12.53;90.79;100484.72;5069685;28;20764;-20
2021/11/05 03:43:14;;;;;;;57.08;21.00;;;;;;;12.72;89.38;100493.56;5051723;28;20484;-21
2021/11/05 03:45:40;;;;;;;52.88;21.33;;;;;;;12.69;89.84;100489.50;5069672;28;20086;-20
2021/11/05 03:48:05;;;;;;;64.13;22.45;;;;;;;12.80;89.90;100494.09;5069580;28;20038;-20
2021/11/05 03:50:31;;;;;;;70.68;23.85;;;;;;;12.99;88.84;100494.09;5069801;28;20043;-20
2021/11/05 03:52:56;;;;;;;65.32;23.48;;;;;;;12.86;88.85;100509.25;5069479;28;20512;-22
2021/11/05 03:55:22;;;;;;;61.63;23.88;;;;;;;12.58;89.42;100487.53;5051663;28;20036;-20
2021/11/05 03:57:47;;;;;;;61.58;22.02;;;;;;;12.70;89.94;100496.47;5069213;28;20044;-20
2021/11/05 04:00:13;;;;;;;48.67;20.05;;;;;;;12.34;90.60;100484.69;5069153;28;20033;-21
2021/11/05 04:02:38;;;;;;;56.08;20.58;;;;;;;12.38;91.41;100501.94;5051824;28;20028;-21
2021/11/05 04:05:04;;;;;;;55.25;20.60;;;;;;;12.41;90.83;100488.13;5069165;28;20404;-21
2021/11/05 04:07:30;;;;;;;51.25;20.90;;;;;;;12.42;90.28;100491.59;5069296;28;20024;-20
2021/11/05 04:09:55;;;;;;;58.72;21.77;;;;;;;12.57;90.19;100497.44;5068944;28;20472;-20
2021/11/05 04:12:21;;;;;;;53.50;20.70;;;;;;;12.17;92.53;100507.66;5069150;28;20036;-20
2021/11/05 04:14:46;;;;;;;56.35;20.88;;;;;;;11.87;94.25;100492.25;5069195;28;20040;-21
2021/11/05 04:17:13;;;;;;;59.58;21.92;;;;;;;12.21;93.73;100499.00;5068644;28;20114;-20
2021/11/05 04:19:42;;;;;;;51.08;20.08;;;;;;;12.53;91.12;100503.44;5069110;28;20507;-20
2021/11/05 04:22:08;;;;;;;63.00;22.00;;;;;;;13.08;88.80;100506.16;5050930;28;20032;-20
2021/11/05 04:24:33;;;;;;;63.00;23.42;;;;;;;13.03;88.27;100498.75;5068621;28;20123;-20
2021/11/05 04:26:59;;;;;;;53.83;21.25;;;;;;;12.89;88.85;100483.09;5068821;28;20040;-21
2021/11/05 04:29:24;;;;;;;53.53;20.45;;;;;;;12.81;89.69;100487.72;5067217;28;20079;-20
2021/11/05 04:31:50;;;;;;;53.97;20.15;;;;;;;12.75;89.09;100479.75;5050766;28;20400;-20
2021/11/05 04:34:16;;;;;;;42.63;17.13;;;;;;;12.32;91.53;100486.78;5067795;28;20107;-20
2021/11/05 04:36:41;;;;;;;35.70;16.35;;;;;;;12.06;91.70;100495.84;5050377;28;20039;-23
2021/11/05 04:39:09;;;;;;;36.10;16.58;;;;;;;11.98;92.78;100499.59;5069065;28;20056;-21
2021/11/05 04:41:35;;;;;;;40.13;17.30;;;;;;;12.16;92.98;100506.06;5068899;28;20123;-22
2021/11/05 04:44:00;;;;;;;50.63;17.95;;;;;;;12.58;91.26;100507.06;5068441;28;20147;-20
2021/11/05 04:46:26;;;;;;;52.58;19.48;;;;;;;12.69;90.56;100504.72;5050871;28;20025;-20
2021/11/05 04:48:51;;;;;;;59.85;24.85;;;;;;;12.25;92.33;100508.22;5050605;28;20032;-20
2021/11/05 04:51:17;;;;;;;50.55;20.15;;;;;;;12.25;93.02;100507.41;5050612;28;20077;-20
2021/11/05 04:53:43;;;;;;;45.58;18.58;;;;;;;12.28;92.90;100515.00;5068020;28;20044;-20
2021/11/05 04:56:09;;;;;;;52.33;19.38;;;;;;;12.76;90.47;100506.28;5068948;28;20031;-20
2021/11/05 04:58:34;;;;;;;49.55;18.92;;;;;;;12.63;90.29;100509.94;5050432;28;20475;-20
2021/11/05 05:01:00;;;;;;;46.95;19.88;;;;;;;13.06;87.32;100490.28;5068275;28;20086;-20
2021/11/05 05:03:25;;;;;;;43.63;17.95;;;;;;;12.62;88.81;100489.53;5068208;28;20032;-20
2021/11/05 05:05:51;;;;;;;46.17;17.98;;;;;;;12.93;89.07;100511.84;5068648;28;20033;-20
2021/11/05 05:08:16;;;;;;;50.80;19.73;;;;;;;12.74;88.89;100511.03;5050162;28;20040;-21
2021/11/05 05:10:42;;;;;;;48.38;21.88;;;;;;;12.48;90.69;100508.63;5068279;28;20844;-21
2021/11/05 05:13:07;;;;;;;40.20;18.42;;;;;;;12.25;92.02;100515.41;5068246;28;20036;-20
2021/11/05 05:15:33;;;;;;;44.20;22.67;;;;;;;12.34;91.72;100522.16;5068325;28;20032;-21
2021/11/05 05:17:58;;;;;;;45.08;20.05;;;;;;;12.46;91.24;100514.19;5068150;28;20033;-21
2021/11/05 05:20:24;;;;;;;50.30;23.33;;;;;;;12.42;90.81;100527.22;5068327;28;20020;-21
2021/11/05 05:22:49;;;;;;;45.20;20.10;;;;;;;12.16;91.67;100538.13;5050019;28;20560;-20
2021/11/05 05:25:16;;;;;;;45.50;20.15;;;;;;;11.84;92.71;100503.38;5068083;28;20025;-20
2021/11/05 05:27:42;;;;;;;44.17;19.83;;;;;;;11.84;93.49;100535.44;5068067;28;20063;-24
2021/11/05 05:30:10;;;;;;;42.33;19.42;;;;;;;11.66;94.12;100539.63;5067285;28;20055;-20
2021/11/05 05:32:35;;;;;;;48.60;21.25;;;;;;;11.58;95.23;100537.22;5068023;28;20109;-20
2021/11/05 05:35:01;;;;;;;47.40;21.00;;;;;;;11.53;95.64;100544.25;5068075;28;20537;-20
2021/11/05 05:37:26;;;;;;;87.60;47.53;;;;;;;11.58;95.86;100537.22;5067786;28;20024;-20
2021/11/05 05:39:52;;;;;;;47.53;22.30;;;;;;;11.71;94.81;100548.88;5067470;28;20052;-21
2021/11/05 05:42:17;;;;;;;40.75;19.23;;;;;;;11.65;94.68;100559.38;5068069;28;20477;-20
2021/11/05 05:44:43;;;;;;;46.75;18.33;;;;;;;11.43;96.13;100545.50;5068205;28;20048;-20
2021/11/05 05:47:08;;;;;;;42.50;19.02;;;;;;;11.37;96.46;100550.91;5067950;28;20024;-20
2021/11/05 05:49:34;;;;;;;47.47;22.42;;;;;;;11.70;95.89;100555.25;5067932;28;20028;-20
2021/11/05 05:51:59;;;;;;;43.35;20.15;;;;;;;11.71;94.99;100548.88;5067730;28;20519;-20
2021/11/05 05:54:25;;;;;;;39.35;20.02;;;;;;;11.65;94.78;100543.34;5068312;28;20047;-20
2021/11/05 05:56:50;;;;;;;41.13;18.35;;;;;;;11.70;95.05;100561.41;5049620;28;20025;-23
2021/11/05 05:59:17;;;;;;;40.85;18.67;;;;;;;11.66;94.67;100569.03;5068004;28;20126;-20
2021/11/05 06:01:43;;;;;;;40.50;18.45;;;;;;;11.41;95.44;100552.13;5067920;28;20020;-21
2021/11/05 06:04:08;;;;;;;36.85;18.00;;;;;;;11.44;95.84;100568.53;5049803;28;20444;-20
2021/11/05 06:06:34;;;;;;;38.80;19.85;;;;;;;11.41;95.79;100568.13;5067519;28;20029;-20
2021/11/05 06:08:59;;;;;;;37.42;19.30;;;;;;;11.23;97.04;100577.63;5067788;28;20466;-20
2021/11/05 06:11:25;;;;;;;40.03;20.17;;;;;;;11.12;98.14;100559.63;5067475;28;20029;-20
2021/11/05 06:13:51;;;;;;;40.70;19.02;;;;;;;11.30;97.66;100566.09;5067509;28;20028;-20
2021/11/05 06:16:16;;;;;;;87.53;17.90;;;;;;;11.73;95.68;100576.19;5067897;28;20146;-20
2021/11/05 06:18:42;;;;;;;36.25;17.70;;;;;;;11.82;94.81;100569.56;5067625;28;20028;-21
2021/11/05 06:21:07;;;;;;;33.65;17.58;;;;;;;12.07;93.99;100580.34;5049753;28;20040;-20
2021/11/05 06:23:33;;;;;;;36.35;17.27;;;;;;;12.24;92.36;100583.31;5067690;28;20102;-20
2021/11/05 06:25:58;;;;;;;39.95;19.63;;;;;;;12.08;93.00;100578.50;5049315;28;20475;-20
2021/11/05 06:28:25;;;;;;;32.13;16.48;;;;;;;12.36;91.29;100583.41;5049622;28;20044;-20
2021/11/05 06:30:51;;;;;;;33.17;16.88;;;;;;;12.65;90.01;100574.75;5049750;28;20032;-20
2021/11/05 06:33:18;;;;;;;32.25;16.63;;;;;;;12.08;92.26;100581.19;5049442;28;20394;-20
2021/11/05 06:35:44;;;;;;;29.47;15.87;;;;;;;12.13;91.78;100592.03;5067272;28;20029;-20
2021/11/05 06:38:09;;;;;;;29.35;15.13;;;;;;;12.15;91.93;100588.09;5048364;28;20360;-21
2021/11/05 06:40:34;;;;;;;24.58;13.02;;;;;;;12.20;91.77;100598.16;5069056;28;20040;-21
2021/11/05 06:43:00;;;;;;;29.27;14.82;;;;;;;12.11;91.83;100591.41;5053448;28;20805;-21
2021/11/05 06:45:28;;;;;;;28.42;13.90;;;;;;;12.25;91.09;100584.94;5053126;28;20036;-21
2021/11/05 06:47:54;;;;;;;28.92;14.57;;;;;;;12.17;91.40;100585.22;5070928;28;20024;-21
2021/11/05 06:50:20;;;;;;;27.08;13.20;;;;;;;12.15;91.26;100596.13;5052946;28;20728;-20
2021/11/05 06:52:45;;;;;;;26.60;14.32;;;;;;;12.24;90.64;100599.38;5070894;28;20507;-22
2021/11/05 06:55:11;;;;;;;28.95;13.60;;;;;;;12.25;91.41;100598.31;5070595;28;20089;-20
2021/11/05 06:57:36;;;;;;;28.20;14.75;;;;;;;12.10;91.96;100598.63;5035899;28;20035;-19
2021/11/05 07:00:04;;;;;;;30.67;14.60;;;;;;;11.90;93.27;100590.72;5070219;28;20488;-20
2021/11/05 07:02:30;;;;;;;35.03;17.42;;;;;;;12.04;93.58;100599.50;5052673;28;20029;-20
2021/11/05 07:04:55;;;;;;;33.53;17.25;;;;;;;11.89;94.04;100602.47;5071185;28;20051;-20
2021/11/05 07:07:21;;;;;;;23.20;13.70;;;;;;;11.68;94.61;100594.72;5052568;28;20562;-21
2021/11/05 07:09:46;;;;;;;30.83;16.35;;;;;;;11.55;95.15;100580.41;5070011;28;20036;-20
2021/11/05 07:12:13;;;;;;;25.63;13.68;;;;;;;11.69;94.75;100599.03;5070411;28;20037;-21
2021/11/05 07:14:38;;;;;;;30.23;15.10;;;;;;;11.98;93.11;100595.00;5070635;28;20028;-20
2021/11/05 07:17:04;;;;;;;24.73;13.25;;;;;;;11.78;94.02;100593.22;5052213;28;20024;-20
2021/11/05 07:19:29;;;;;;;28.67;14.85;;;;;;;11.94;93.49;100591.94;5070401;28;20028;-20
2021/11/05 07:22:04;;;;;;;28.38;14.80;;;;;;;12.08;93.61;100599.88;5070349;28;20055;-20
2021/11/05 07:24:33;;;;;;;27.20;13.95;;;;;;;12.26;93.36;100602.66;5052106;28;20412;-21
2021/11/05 07:26:59;;;;;;;23.63;12.43;;;;;;;12.14;92.40;100609.72;5070311;28;20028;-20
2021/11/05 07:29:27;;;;;;;24.30;12.77;;;;;;;12.32;90.93;100607.13;5070293;28;20080;-20
2021/11/05 07:31:58;;;;;;;22.83;12.20;;;;;;;12.14;92.21;100589.16;5069977;28;20039;-20
2021/11/05 07:34:23;;;;;;;38.42;24.85;;;;;;;12.26;91.21;100581.25;5069945;28;20024;-20
2021/11/05 07:36:49;;;;;;;44.65;29.42;;;;;;;12.45;91.12;100601.66;5052027;28;20027;-20
2021/11/05 07:39:15;;;;;;;28.90;17.85;;;;;;;12.53;91.07;100602.44;5069803;28;20056;-20
2021/11/05 07:41:40;;;;;;;36.55;24.98;;;;;;;12.58;89.83;100600.72;5069812;28;20032;-20
2021/11/05 07:44:06;;;;;;;26.77;15.82;;;;;;;12.70;89.26;100600.84;5069961;28;20093;-20
2021/11/05 07:46:31;;;;;;;21.08;12.02;;;;;;;12.74;88.79;100602.03;5051742;28;20032;-21
2021/11/05 07:48:57;;;;;;;26.85;16.65;;;;;;;13.27;86.16;100620.22;5069776;28;20032;-20
2021/11/05 07:51:22;;;;;;;22.88;14.23;;;;;;;13.59;83.96;100628.16;5034548;28;20035;-20
2021/11/05 07:53:48;;;;;;;24.98;13.60;;;;;;;13.48;84.45;100631.56;5034618;28;20440;-20
2021/11/05 07:56:14;;;;;;;27.63;17.20;;;;;;;13.07;85.42;100633.00;5069430;28;20028;-20
2021/11/05 07:58:39;;;;;;;28.08;15.43;;;;;;;13.21;85.11;100631.03;5069298;28;20103;-20
2021/11/05 08:01:05;;;;;;;32.10;18.00;;;;;;;13.30;84.98;100623.53;5069339;28;20024;-22
2021/11/05 08:03:30;;;;;;;29.00;16.60;;;;;;;12.80;86.70;100625.25;5069859;28;20036;-20
2021/11/05 08:05:56;;;;;;;29.23;16.00;;;;;;;12.68;86.69;100616.28;5069091;28;20107;-21
2021/11/05 08:08:21;;;;;;;35.25;18.02;;;;;;;13.14;85.96;100617.72;5069402;28;20062;-20
2021/11/05 08:10:47;;;;;;;32.70;19.73;;;;;;;12.97;87.36;100619.31;5068810;28;20412;-21
2021/11/05 08:13:14;;;;;;;33.97;21.20;;;;;;;12.98;86.91;100615.63;5068706;28;20041;-21
2021/11/05 08:15:39;;;;;;;41.70;23.42;;;;;;;13.03;86.77;100602.38;5069127;28;20082;-20
2021/11/05 08:18:05;;;;;;;40.22;23.63;;;;;;;12.99;88.42;100617.25;5068719;28;20761;-20
2021/11/05 08:20:30;;;;;;;37.55;22.10;;;;;;;13.07;87.63;100619.63;5051111;28;20036;-21
2021/11/05 08:22:55;;;;;;;36.65;21.00;;;;;;;13.21;86.90;100614.97;5069155;28;20382;-19
2021/11/05 08:25:21;;;;;;;32.13;18.42;;;;;;;13.07;86.33;100616.94;5051014;28;20036;-19
2021/11/05 08:27:47;;;;;;;39.80;22.75;;;;;;;12.84;87.61;100610.38;5050557;28;20093;-21
2021/11/05 08:30:20;;;;;;;39.00;20.45;;;;;;;13.26;86.92;100607.09;5050961;28;20036;-21
2021/11/05 08:32:46;;;;;;;49.20;28.85;;;;;;;13.44;84.78;100603.59;5068960;28;20044;-20
2021/11/05 08:35:11;;;;;;;47.63;26.25;;;;;;;13.11;86.83;100625.38;5050668;28;20037;-20
2021/11/05 08:37:37;;;;;;;75.85;37.67;;;;;;;13.35;86.33;100616.47;5050632;28;20119;-20
2021/11/05 08:40:03;;;;;;;54.60;27.58;;;;;;;12.97;87.95;100604.06;5050390;28;20052;-20
2021/11/05 08:42:29;;;;;;;37.15;18.92;;;;;;;12.67;89.09;100598.59;5068652;28;20024;-20
2021/11/05 08:44:54;;;;;;;49.10;24.65;;;;;;;13.31;86.80;100603.75;5050626;28;20109;-21
2021/11/05 08:47:20;;;;;;;38.13;18.75;;;;;;;13.02;88.11;100600.75;5050467;28;20060;-20
2021/11/05 08:49:52;;;;;;;32.70;17.63;;;;;;;12.61;89.13;100588.78;5068389;28;20035;-21
2021/11/05 08:52:17;;;;;;;39.88;20.10;;;;;;;12.79;89.09;100601.38;5068384;28;20412;-20
2021/11/05 08:54:43;;;;;;;35.58;17.88;;;;;;;12.76;88.39;100616.00;5068530;28;20036;-21
2021/11/05 08:57:08;;;;;;;39.35;22.85;;;;;;;12.78;89.54;100603.22;5068362;28;20060;-20
2021/11/05 08:59:34;;;;;;;37.75;20.15;;;;;;;12.61;90.51;100610.19;5068266;28;20121;-20
2021/11/05 09:01:59;;;;;;;36.90;19.40;;;;;;;12.99;88.16;100611.88;5068337;28;20472;-20
2021/11/05 09:04:26;;;;;;;37.60;19.52;;;;;;;12.84;88.66;100615.72;5049793;28;20048;-20
2021/11/05 09:06:51;;;;;;;42.13;20.52;;;;;;;12.86;88.11;100602.94;5050469;28;20139;-20
2021/11/05 09:09:17;;;;;;;47.10;23.27;;;;;;;12.67;89.07;100590.59;5068095;28;20029;-20
2021/11/05 09:11:43;;;;;;;34.63;19.40;;;;;;;13.08;87.21;100605.22;5050155;28;20043;-20
2021/11/05 09:14:09;;;;;;;39.53;20.65;;;;;;;13.36;85.35;100601.22;5068191;28;20036;-21
2021/11/05 09:16:35;;;;;;;39.58;21.70;;;;;;;13.20;86.89;100619.50;5068043;28;20021;-21
2021/11/05 09:19:02;;;;;;;41.22;21.88;;;;;;;13.22;87.63;100600.53;5068112;28;20029;-21
2021/11/05 09:21:29;;;;;;;43.88;23.67;;;;;;;13.69;86.05;100605.34;5068389;28;20477;-20
2021/11/05 09:23:54;;;;;;;43.88;23.25;;;;;;;13.61;85.52;100604.63;5067911;28;20040;-20
2021/11/05 09:26:22;;;;;;;40.20;23.17;;;;;;;13.55;86.25;100589.47;5067847;28;20024;-20
2021/11/05 09:28:47;;;;;;;43.53;24.73;;;;;;;13.34;87.55;100587.22;5067929;28;20036;-20
2021/11/05 09:31:13;;;;;;;46.28;25.33;;;;;;;13.03;88.70;100580.94;5050660;28;20036;-19
2021/11/05 09:33:38;;;;;;;51.88;27.05;;;;;;;12.78;89.80;100576.47;5067858;28;20466;-20
2021/11/05 09:36:04;;;;;;;47.60;25.95;;;;;;;12.98;89.20;100584.31;5067695;28;20036;-20
2021/11/05 09:38:29;;;;;;;45.60;26.60;;;;;;;12.91;89.24;100591.56;5068128;28;20087;-20
2021/11/05 09:40:55;;;;;;;43.72;25.58;;;;;;;12.89;89.46;100590.16;5067911;28;20025;-20
2021/11/05 09:43:20;;;;;;;45.40;24.45;;;;;;;13.16;88.42;100570.09;5049947;28;20135;-20
2021/11/05 09:45:46;;;;;;;50.47;28.30;;;;;;;13.07;88.49;100582.13;5049934;28;20029;-21
2021/11/05 09:48:13;;;;;;;44.53;24.70;;;;;;;12.90;89.54;100576.56;5067969;28;20032;-22
2021/11/05 09:50:39;;;;;;;44.05;25.05;;;;;;;12.96;90.61;100577.53;5067970;28;20024;-21
2021/11/05 09:53:04;;;;;;;41.00;22.40;;;;;;;12.74;90.74;100566.44;5068226;28;20048;-22
2021/11/05 09:55:31;;;;;;;44.20;23.05;;;;;;;12.48;91.51;100567.47;5067975;28;20768;-21
2021/11/05 09:57:57;;;;;;;46.13;23.75;;;;;;;12.62;91.77;100571.69;5033539;28;20033;-20
2021/11/05 10:00:25;;;;;;;47.78;25.63;;;;;;;12.93;89.88;100554.69;5049781;28;20068;-20
2021/11/05 10:02:51;;;;;;;45.85;25.83;;;;;;;13.08;88.59;100573.09;5068455;28;20188;-21
2021/11/05 10:05:17;;;;;;;38.63;21.83;;;;;;;12.89;89.02;100576.78;5067618;28;20455;-20
2021/11/05 10:07:55;;;;;;;36.65;22.50;;;;;;;12.83;89.54;100579.31;5067362;28;20035;-20
2021/11/05 10:10:44;;;;;;;37.17;22.75;;;;;;;12.70;89.67;100558.00;5049448;28;20090;-21
2021/11/05 10:13:11;;;;;;;36.22;22.38;;;;;;;12.50;90.55;100549.34;5067274;28;20131;-20
2021/11/05 10:15:36;;;;;;;43.05;23.38;;;;;;;12.58;91.47;100557.09;5051464;28;20029;-21
2021/11/05 10:18:04;;;;;;;41.80;25.17;;;;;;;12.76;89.75;100546.44;5071307;28;20071;-20
2021/11/05 10:20:29;;;;;;;41.90;24.20;;;;;;;12.74;90.34;100545.84;5071433;28;20494;-20
2021/11/05 10:22:59;;;;;;;36.97;23.80;;;;;;;12.30;91.88;100528.13;5071292;28;20028;-20
2021/11/05 10:25:37;;;;;;;38.33;22.75;;;;;;;12.85;89.93;100547.78;5071284;28;20037;-20
2021/11/05 10:28:11;;;;;;;32.83;22.17;;;;;;;12.42;91.00;100543.25;5071291;28;20029;-20
2021/11/05 10:30:38;;;;;;;31.70;19.63;;;;;;;12.22;91.94;100531.91;5053739;28;20036;-19
2021/11/05 10:33:04;;;;;;;30.13;20.10;;;;;;;12.42;91.19;100540.59;5071030;28;20055;-21
2021/11/05 10:35:29;;;;;;;33.40;21.65;;;;;;;12.62;90.96;100536.91;5071112;28;20035;-20
2021/11/05 10:38:00;;;;;;;28.60;18.63;;;;;;;13.04;88.47;100534.41;5052637;28;20035;-20
2021/11/05 10:40:36;;;;;;;52.33;35.83;;;;;;;12.80;88.90;100533.44;5071147;28;20025;-20
2021/11/05 10:43:02;;;;;;;46.65;32.55;;;;;;;12.56;91.07;100532.44;5053235;28;20119;-20
2021/11/05 10:45:27;;;;;;;33.53;22.95;;;;;;;12.69;91.36;100510.91;5070967;28;20032;-21
2021/11/05 10:47:53;;;;;;;36.78;26.27;;;;;;;13.00;89.03;100517.16;5070623;28;20111;-20
2021/11/05 10:50:20;;;;;;;43.70;27.60;;;;;;;13.21;87.45;100497.94;5071059;28;20020;-20
2021/11/05 10:53:08;;;;;;;29.13;19.50;;;;;;;13.42;86.51;100510.06;5070647;28;20058;-20
2021/11/05 10:55:39;;;;;;;;;;;;;;;13.21;86.41;100508.66;5053303;28;20086;-20
2021/11/05 10:58:06;;;;;;;24.45;15.18;;;;;;;12.92;88.17;100512.91;5070245;28;19950;-21
2021/11/05 11:00:32;;;;;;;24.65;14.95;;;;;;;12.60;89.95;100501.50;5052651;28;20046;-19
2021/11/05 11:03:31;;;;;;;23.13;15.90;;;;;;;12.73;89.87;100506.75;5052719;28;20111;-20
2021/11/05 11:06:00;;;;;;;21.25;14.90;;;;;;;12.94;89.04;100496.63;5070428;28;20032;-21